createdAt,value
2019-04-07T00:01:34.552Z,65.44
2019-04-07T00:07:39.270Z,65.31
2019-04-07T00:13:43.871Z,65.68
2019-04-07T00:19:48.786Z,66.19
2019-04-07T00:25:53.519Z,66.59
2019-04-07T00:31:58.100Z,67.07
2019-04-07T00:38:02.731Z,67.37
2019-04-07T00:44:07.351Z,67.74
2019-04-07T00:50:12.945Z,68.46
2019-04-07T00:56:18.287Z,67.93
2019-04-07T01:02:23.245Z,68.77
2019-04-07T01:08:28.168Z,69.33
2019-04-07T01:14:33.592Z,69.57
2019-04-07T01:20:38.266Z,69.76
2019-04-07T01:26:42.829Z,69.87
2019-04-07T01:32:47.561Z,70.34
2019-04-07T01:38:52.181Z,70.40
2019-04-07T01:45:10.533Z,70.61
2019-04-07T01:51:21.124Z,71.58
2019-04-07T01:57:25.701Z,72.11
2019-04-07T02:03:35.697Z,72.69
2019-04-07T02:09:41.964Z,72.79
2019-04-07T02:15:48.235Z,73.26
2019-04-07T02:21:54.635Z,73.48
2019-04-07T02:28:12.720Z,74.20
2019-04-07T02:34:30.872Z,74.29
2019-04-07T02:40:37.315Z,75.09
2019-04-07T02:46:49.619Z,74.55
2019-04-07T02:52:54.664Z,74.53
2019-04-07T02:59:10.170Z,75.60
2019-04-07T03:05:31.693Z,76.23
2019-04-07T03:11:44.610Z,76.29
2019-04-07T03:18:03.036Z,76.30
2019-04-07T03:24:28.499Z,77.43
2019-04-07T03:30:37.558Z,77.98
2019-04-07T03:37:13.840Z,77.63
2019-04-07T03:42:55.291Z,76.87
2019-04-07T03:48:59.952Z,76.02
2019-04-07T03:55:08.720Z,76.56
2019-04-07T04:01:19.382Z,77.80
2019-04-07T04:07:32.343Z,78.71
2019-04-07T04:13:39.040Z,79.16
2019-04-07T04:19:44.035Z,79.17
2019-04-07T04:25:49.105Z,79.16
2019-04-07T04:31:54.541Z,79.23
2019-04-07T04:37:59.771Z,79.27
2019-04-07T04:44:05.160Z,79.83
2019-04-07T04:50:10.947Z,80.42
2019-04-07T04:56:15.547Z,81.31
2019-04-07T05:02:20.092Z,81.64
2019-04-07T05:08:24.754Z,82.10
2019-04-07T05:14:29.276Z,81.75
2019-04-07T05:20:34.443Z,81.71
2019-04-07T05:26:39.048Z,80.65
2019-04-07T05:32:44.367Z,80.92
2019-04-07T05:38:48.904Z,81.21
2019-04-07T05:44:53.632Z,83.58
2019-04-07T05:50:59.931Z,83.41
2019-04-07T05:57:05.366Z,82.47
2019-04-07T06:03:10.076Z,82.73
2019-04-07T06:09:15.880Z,83.19
2019-04-07T06:15:22.176Z,83.21
2019-04-07T06:21:27.795Z,83.57
2019-04-07T06:27:32.607Z,83.82
2019-04-07T06:33:38.211Z,81.01
2019-04-07T06:39:44.073Z,80.46
2019-04-07T06:46:07.058Z,79.32
2019-04-07T06:52:17.321Z,77.13
2019-04-07T06:58:24.276Z,70.83
2019-04-07T07:04:33.283Z,54.95
2019-04-07T07:10:56.312Z,48.09
2019-04-07T07:17:19.709Z,44.97
2019-04-07T07:23:29.537Z,46.34
2019-04-07T07:29:34.096Z,53.02
2019-04-07T07:35:38.864Z,57.00
2019-04-07T07:41:43.686Z,59.17
2019-04-07T07:47:51.205Z,60.22
2019-04-07T07:53:56.604Z,59.96
2019-04-07T08:00:05.115Z,60.64
2019-04-07T08:06:08.389Z,61.05
2019-04-07T08:12:13.112Z,60.41
2019-04-07T08:18:19.847Z,59.57
2019-04-07T08:24:24.058Z,59.89
2019-04-07T08:30:28.896Z,60.94
2019-04-07T08:36:33.848Z,59.58
2019-04-07T08:42:39.185Z,59.00
2019-04-07T08:48:44.364Z,56.83
2019-04-07T08:54:52.182Z,53.49
2019-04-07T09:00:57.366Z,52.59
2019-04-07T09:07:03.843Z,48.08
2019-04-07T09:13:10.146Z,47.38
2019-04-07T09:19:18.172Z,44.92
2019-04-07T09:25:24.532Z,45.15
2019-04-07T09:31:36.445Z,45.07
2019-04-07T09:37:48.309Z,40.38
2019-04-07T09:44:01.133Z,37.99
2019-04-07T09:50:06.744Z,36.08
2019-04-07T09:56:16.236Z,34.66
2019-04-07T10:02:35.693Z,33.20
2019-04-07T10:08:47.906Z,31.38
2019-04-07T10:15:11.792Z,30.60
2019-04-07T10:21:35.045Z,30.44
2019-04-07T10:27:59.423Z,28.56
2019-04-07T10:34:06.247Z,27.02
2019-04-07T10:40:35.402Z,27.76
2019-04-07T10:46:44.938Z,25.42
2019-04-07T10:52:58.062Z,25.77
2019-04-07T10:59:07.508Z,25.24
2019-04-07T11:05:30.407Z,25.55
2019-04-07T11:11:44.711Z,25.01
2019-04-07T11:18:06.659Z,25.61
2019-04-07T11:24:15.520Z,28.54
2019-04-07T11:30:27.235Z,29.42
2019-04-07T11:36:43.235Z,28.10
2019-04-07T11:43:03.350Z,26.26
2019-04-07T11:49:26.676Z,28.52
2019-04-07T11:55:48.757Z,29.51
2019-04-07T12:01:53.245Z,26.16
2019-04-07T12:08:06.085Z,26.22
2019-04-07T12:14:17.035Z,25.34
2019-04-07T12:20:33.835Z,22.42
2019-04-07T12:26:56.700Z,21.94
2019-04-07T12:33:01.187Z,22.37
2019-04-07T12:39:16.318Z,22.93
2019-04-07T12:45:38.553Z,24.39
2019-04-07T12:51:44.867Z,31.02
2019-04-07T12:57:59.980Z,34.78
2019-04-07T13:04:10.059Z,33.75
2019-04-07T13:10:16.838Z,34.78
2019-04-07T13:16:26.000Z,35.42
2019-04-07T13:22:43.896Z,38.81
2019-04-07T13:29:00.691Z,41.05
2019-04-07T13:35:24.317Z,41.42
2019-04-07T13:41:38.708Z,43.05
2019-04-07T13:47:55.766Z,42.22
2019-04-07T13:54:05.463Z,45.28
2019-04-07T14:00:24.202Z,34.38
2019-04-07T14:06:29.451Z,27.08
2019-04-07T14:12:34.601Z,27.12
2019-04-07T14:18:44.494Z,27.42
2019-04-07T14:24:56.715Z,28.12
2019-04-07T14:31:28.219Z,31.75
2019-04-07T14:37:35.982Z,30.72
2019-04-07T14:43:43.127Z,34.84
2019-04-07T14:49:56.137Z,33.10
2019-04-07T14:56:05.883Z,23.31
2019-04-07T15:02:10.396Z,21.34
2019-04-07T15:08:23.629Z,21.46
2019-04-07T15:14:31.427Z,18.87
2019-04-07T15:20:34.763Z,19.24
2019-04-07T15:26:40.083Z,19.84
2019-04-07T15:32:44.728Z,20.23
2019-04-07T15:38:49.743Z,21.85
2019-04-07T15:44:54.587Z,22.82
2019-04-07T15:51:02.485Z,23.04
2019-04-07T15:57:05.744Z,22.36
2019-04-07T16:03:12.735Z,22.27
2019-04-07T16:09:30.689Z,22.57
2019-04-07T16:15:23.295Z,23.65
2019-04-07T16:21:29.729Z,22.79
2019-04-07T16:27:36.461Z,23.71
2019-04-07T16:33:40.991Z,25.18
2019-04-07T16:39:45.774Z,27.77
2019-04-07T16:45:50.666Z,29.46
2019-04-07T16:51:58.367Z,29.35
2019-04-07T16:58:02.916Z,30.23
2019-04-07T17:04:08.328Z,30.18
2019-04-07T17:10:13.400Z,30.82
2019-04-07T17:16:22.603Z,32.50
2019-04-07T17:22:25.132Z,33.47
2019-04-07T17:28:29.862Z,36.02
2019-04-07T17:34:35.388Z,36.55
2019-04-07T17:40:51.818Z,38.47
2019-04-07T17:47:13.894Z,40.92
2019-04-07T17:53:20.086Z,43.67
2019-04-07T17:59:24.420Z,46.52
2019-04-07T18:05:29.275Z,46.99
2019-04-07T18:11:47.670Z,48.53
2019-04-07T18:18:10.346Z,50.16
2019-04-07T18:24:16.852Z,52.09
2019-04-07T18:30:25.948Z,53.11
2019-04-07T18:36:42.672Z,54.36
2019-04-07T18:42:51.418Z,55.62
2019-04-07T18:49:15.852Z,56.34
2019-04-07T18:55:39.338Z,56.95
2019-04-07T19:01:52.603Z,58.07
2019-04-07T19:08:17.462Z,57.70
2019-04-07T19:14:45.967Z,58.04
2019-04-07T19:21:02.996Z,58.61
2019-04-07T19:27:21.178Z,58.07
2019-04-07T19:33:24.479Z,56.63
2019-04-07T19:39:32.956Z,56.69
2019-04-07T19:45:39.286Z,56.93
2019-04-07T19:51:46.956Z,56.59
2019-04-07T19:57:54.819Z,57.49
2019-04-07T20:04:03.745Z,58.11
2019-04-07T20:10:16.417Z,59.97
2019-04-07T20:16:21.933Z,60.68
2019-04-07T20:22:41.402Z,61.60
2019-04-07T20:28:47.752Z,62.59
2019-04-07T20:34:59.038Z,62.13
2019-04-07T20:41:17.587Z,61.85
2019-04-07T20:47:40.395Z,62.36
2019-04-07T20:53:45.121Z,61.65
2019-04-07T20:59:55.166Z,61.94
2019-04-07T21:06:06.339Z,61.45
2019-04-07T21:12:30.192Z,60.53
2019-04-07T21:18:40.277Z,60.43
2019-04-07T21:25:02.548Z,61.12
2019-04-07T21:31:26.049Z,62.58
2019-04-07T21:37:35.848Z,62.10
2019-04-07T21:43:46.680Z,62.73
2019-04-07T21:50:07.559Z,63.64
2019-04-07T21:56:22.244Z,63.49
2019-04-07T22:02:31.496Z,63.70
2019-04-07T22:08:43.344Z,63.66
2019-04-07T22:14:47.567Z,63.65
2019-04-07T22:20:54.533Z,62.91
2019-04-07T22:26:59.336Z,61.91
2019-04-07T22:33:04.242Z,61.04
2019-04-07T22:39:09.004Z,61.62
2019-04-07T22:45:14.825Z,61.16
2019-04-07T22:51:19.666Z,63.31
2019-04-07T22:57:24.326Z,65.45
2019-04-07T23:03:29.293Z,66.44
2019-04-07T23:09:34.040Z,67.18
2019-04-07T23:15:44.338Z,68.65
2019-04-07T23:21:44.883Z,68.91
2019-04-07T23:27:50.015Z,69.11
2019-04-07T23:33:54.642Z,69.95
2019-04-07T23:40:00.170Z,71.02
2019-04-07T23:46:05.328Z,71.93
2019-04-07T23:52:09.890Z,72.07
2019-04-07T23:58:14.458Z,72.21
